createdAt,value
2023-03-29T08:27:03.377Z,7.79
2023-03-29T08:29:31.449Z,8.82
2023-03-29T08:32:02.289Z,9.42
2023-03-29T08:34:31.916Z,9.91
2023-03-29T08:37:17.607Z,10.30
2023-03-29T08:39:47.335Z,10.67
2023-03-29T08:42:38.741Z,10.79
2023-03-29T08:45:30.425Z,11.08
2023-03-29T08:48:09.030Z,11.38
2023-03-29T08:50:41.524Z,11.64
2023-03-29T08:53:15.137Z,11.77
2023-03-29T08:56:09.023Z,11.96
2023-03-29T08:58:55.730Z,12.20
2023-03-29T09:01:25.039Z,12.42
2023-03-29T09:04:03.555Z,12.58
2023-03-29T09:06:45.228Z,12.90
2023-03-29T09:09:24.533Z,13.39
2023-03-29T09:12:04.412Z,13.49
2023-03-29T09:14:39.567Z,13.52
2023-03-29T09:17:17.017Z,13.70
2023-03-29T09:20:12.918Z,14.27
2023-03-29T09:23:14.975Z,14.39
2023-03-29T09:26:26.950Z,14.68
2023-03-29T09:29:18.195Z,14.56
2023-03-29T09:31:45.655Z,14.58
2023-03-29T09:34:15.917Z,14.70
2023-03-29T09:37:04.471Z,15.00
2023-03-29T09:39:31.856Z,15.14
2023-03-29T09:42:09.488Z,14.83
2023-03-29T09:44:44.157Z,14.95
2023-03-29T09:47:23.527Z,15.27
2023-03-29T09:49:52.862Z,15.12
2023-03-29T09:52:21.184Z,15.22
2023-03-29T09:55:03.966Z,15.32
2023-03-29T09:58:19.489Z,15.44
2023-03-29T10:00:50.545Z,15.20
2023-03-29T10:03:24.081Z,14.98
2023-03-29T10:06:02.958Z,15.00
2023-03-29T10:08:36.205Z,15.17
2023-03-29T10:11:13.856Z,15.28
2023-03-29T10:13:47.365Z,15.31
2023-03-29T10:16:23.003Z,15.58
2023-03-29T10:18:50.592Z,15.63
2023-03-29T10:21:22.299Z,15.70
2023-03-29T10:23:49.790Z,15.83
2023-03-29T10:26:28.673Z,15.77
2023-03-29T10:28:57.524Z,15.67
2023-03-29T10:31:25.289Z,15.63
2023-03-29T10:33:54.666Z,15.45
2023-03-29T10:36:22.684Z,15.56
2023-03-29T10:38:51.284Z,15.34
2023-03-29T10:41:18.428Z,14.88
2023-03-29T10:43:49.566Z,14.66
2023-03-29T10:46:43.630Z,14.56
2023-03-29T10:49:19.317Z,14.46
2023-03-29T10:51:47.146Z,14.23
2023-03-29T10:54:15.213Z,13.97
2023-03-29T10:56:43.835Z,14.01
2023-03-29T10:59:28.902Z,13.82
2023-03-29T11:02:14.141Z,13.99
2023-03-29T11:04:56.895Z,13.85
2023-03-29T11:07:33.129Z,13.60
2023-03-29T11:10:28.675Z,13.56
2023-03-29T11:13:20.239Z,13.72
2023-03-29T11:15:59.195Z,13.81
2023-03-29T11:18:32.426Z,13.91
2023-03-29T11:21:10.184Z,13.97
2023-03-29T11:24:01.886Z,13.81
2023-03-29T11:26:35.924Z,13.84
2023-03-29T11:29:12.756Z,14.02
2023-03-29T11:31:54.078Z,14.29
2023-03-29T11:34:30.906Z,14.76
2023-03-29T11:36:59.965Z,15.25
2023-03-29T11:39:54.993Z,15.68
2023-03-29T11:42:29.691Z,15.41
2023-03-29T11:44:57.819Z,15.99
2023-03-29T11:47:28.995Z,16.44
2023-03-29T11:50:26.405Z,16.25
2023-03-29T11:52:56.335Z,16.94
2023-03-29T11:55:31.862Z,17.45
2023-03-29T11:58:15.952Z,17.55
2023-03-29T12:00:42.671Z,17.43
2023-03-29T12:03:40.566Z,17.37
2023-03-29T12:06:17.944Z,17.10
2023-03-29T12:08:50.048Z,16.89
2023-03-29T12:11:28.751Z,16.52
2023-03-29T12:14:04.198Z,16.30
2023-03-29T12:16:40.551Z,15.99
2023-03-29T12:19:17.163Z,15.79
2023-03-29T12:21:46.223Z,15.65
2023-03-29T12:24:16.284Z,15.12
2023-03-29T12:27:01.837Z,14.85
2023-03-29T12:30:00.210Z,14.67
2023-03-29T12:33:03.771Z,14.65
2023-03-29T12:35:59.766Z,14.47
2023-03-29T12:38:30.693Z,14.53
2023-03-29T12:41:19.324Z,14.61
2023-03-29T12:44:05.278Z,14.39
2023-03-29T12:46:55.314Z,14.50
2023-03-29T12:49:24.959Z,14.48
2023-03-29T12:51:53.294Z,14.58
2023-03-29T12:54:23.441Z,14.59
2023-03-29T12:57:01.904Z,14.69
2023-03-29T12:59:38.801Z,14.74
2023-03-29T13:02:15.011Z,14.80
2023-03-29T13:04:54.995Z,14.75
2023-03-29T13:07:28.001Z,14.72
2023-03-29T13:09:56.372Z,14.68
2023-03-29T13:12:37.904Z,14.45
2023-03-29T13:15:08.200Z,14.47
2023-03-29T13:17:45.191Z,14.33
2023-03-29T13:20:29.823Z,14.18
2023-03-29T13:23:17.442Z,14.08
2023-03-29T13:25:57.463Z,14.06
2023-03-29T13:28:38.388Z,14.02
2023-03-29T13:31:19.339Z,13.78
2023-03-29T13:34:15.209Z,13.55
2023-03-29T13:37:12.193Z,13.69
2023-03-29T13:39:48.823Z,13.89
2023-03-29T13:42:37.436Z,13.88
2023-03-29T13:45:25.554Z,14.13
2023-03-29T13:48:24.699Z,14.11
2023-03-29T13:51:08.212Z,13.85
2023-03-29T13:53:54.434Z,13.90
2023-03-29T13:56:31.607Z,13.85
2023-03-29T13:59:16.040Z,14.08
2023-03-29T14:01:57.506Z,13.87
2023-03-29T14:04:27.363Z,13.74
2023-03-29T14:06:56.329Z,13.65
2023-03-29T14:09:28.389Z,13.84
2023-03-29T14:11:55.457Z,13.97
2023-03-29T14:14:26.601Z,14.04
2023-03-29T14:16:56.065Z,13.87
2023-03-29T14:19:35.083Z,13.73
2023-03-29T14:22:02.678Z,13.37
2023-03-29T14:24:39.056Z,13.20
2023-03-29T14:27:10.331Z,13.13
2023-03-29T14:29:37.730Z,13.16
2023-03-29T14:32:18.226Z,13.12
2023-03-29T14:34:51.279Z,13.13
2023-03-29T14:37:23.155Z,13.20
2023-03-29T14:39:50.377Z,13.19
2023-03-29T14:42:21.591Z,13.25
2023-03-29T14:44:49.341Z,13.38
2023-03-29T14:47:21.249Z,13.32
2023-03-29T14:49:48.071Z,13.24
2023-03-29T14:52:15.224Z,13.28
2023-03-29T14:54:44.740Z,13.28
2023-03-29T14:57:16.807Z,13.11
2023-03-29T14:59:44.373Z,13.12
2023-03-29T15:02:32.224Z,13.00
2023-03-29T15:05:04.893Z,13.07
2023-03-29T15:07:36.651Z,13.12
2023-03-29T15:10:05.866Z,13.21
2023-03-29T15:12:33.118Z,13.20
2023-03-29T15:15:01.231Z,13.16
2023-03-29T15:17:39.432Z,13.29
2023-03-29T15:20:23.466Z,13.33
2023-03-29T15:23:09.841Z,13.34
2023-03-29T15:25:46.227Z,13.33
2023-03-29T15:28:32.893Z,13.30
2023-03-29T15:31:20.997Z,13.25
2023-03-29T15:33:47.975Z,13.12
2023-03-29T15:36:16.776Z,13.20
2023-03-29T15:38:45.323Z,13.43
2023-03-29T15:41:15.762Z,13.51
2023-03-29T15:43:43.434Z,13.32
2023-03-29T15:46:14.329Z,13.47
2023-03-29T15:48:41.225Z,13.36
2023-03-29T15:51:11.052Z,13.28
2023-03-29T15:53:41.213Z,13.28
2023-03-29T15:56:11.683Z,13.30
2023-03-29T15:58:38.903Z,13.35
2023-03-29T16:01:34.714Z,13.37
2023-03-29T16:04:07.483Z,13.28
2023-03-29T16:06:35.020Z,13.36
2023-03-29T16:09:02.281Z,13.44
2023-03-29T16:11:29.290Z,13.22
2023-03-29T16:13:56.495Z,13.21
2023-03-29T16:16:23.948Z,13.24
2023-03-29T16:18:52.063Z,13.23
2023-03-29T16:21:20.236Z,13.25
2023-03-29T16:23:47.420Z,13.30
2023-03-29T16:26:16.582Z,13.37
2023-03-29T16:28:43.621Z,13.32
2023-03-29T16:31:12.297Z,13.30
2023-03-29T16:33:40.490Z,13.27
2023-03-29T16:36:08.299Z,13.22
2023-03-29T16:38:35.717Z,13.19
2023-03-29T16:41:02.917Z,13.27
2023-03-29T16:43:29.859Z,13.18
2023-03-29T16:45:57.312Z,13.20
2023-03-29T16:48:24.251Z,13.26
2023-03-29T16:50:51.398Z,13.22
2023-03-29T16:53:19.009Z,13.18
2023-03-29T16:55:49.135Z,13.21
2023-03-29T16:58:16.386Z,13.21
2023-03-29T17:00:46.370Z,13.13
2023-03-29T17:03:14.929Z,13.20
2023-03-29T17:05:53.278Z,13.27
2023-03-29T17:08:20.960Z,13.25
2023-03-29T17:10:52.952Z,13.30
2023-03-29T17:13:21.427Z,13.25
2023-03-29T17:15:51.827Z,13.13
2023-03-29T17:18:22.839Z,13.06
2023-03-29T17:20:56.091Z,13.15
2023-03-29T17:23:23.132Z,13.13
2023-03-29T17:25:50.134Z,13.11
2023-03-29T17:28:16.979Z,13.17
2023-03-29T17:30:46.980Z,13.14
2023-03-29T17:33:13.922Z,13.14
2023-03-29T17:35:44.580Z,13.13
2023-03-29T17:38:12.053Z,13.02
2023-03-29T17:40:39.523Z,13.01
2023-03-29T17:43:06.539Z,12.90
2023-03-29T17:45:35.551Z,13.02
2023-03-29T17:48:05.610Z,12.99
2023-03-29T17:50:34.586Z,12.98
2023-03-29T17:53:01.623Z,12.96
2023-03-29T17:55:28.562Z,12.98
2023-03-29T17:57:56.654Z,12.87
2023-03-29T18:00:23.611Z,12.85
2023-03-29T18:02:50.900Z,12.82
2023-03-29T18:05:18.859Z,12.92
2023-03-29T18:07:45.809Z,12.97
2023-03-29T18:10:12.810Z,12.96
2023-03-29T18:12:39.738Z,12.90
2023-03-29T18:15:07.326Z,12.74
2023-03-29T18:17:35.917Z,12.80
2023-03-29T18:20:05.853Z,12.89
2023-03-29T18:22:34.358Z,12.83
2023-03-29T18:25:01.260Z,12.57
2023-03-29T18:27:28.156Z,12.51
2023-03-29T18:29:55.586Z,12.57
2023-03-29T18:32:23.461Z,12.61
2023-03-29T18:34:50.726Z,12.64
2023-03-29T18:37:17.784Z,12.36
2023-03-29T18:39:45.905Z,12.58
2023-03-29T18:42:13.421Z,12.61
2023-03-29T18:44:40.936Z,12.56
2023-03-29T18:47:07.767Z,12.67
2023-03-29T18:49:34.854Z,12.62
2023-03-29T18:52:02.286Z,12.54
2023-03-29T18:54:29.210Z,12.38
2023-03-29T18:56:57.950Z,12.53
2023-03-29T18:59:25.988Z,12.51
2023-03-29T19:01:53.050Z,12.48
2023-03-29T19:04:20.247Z,12.48
2023-03-29T19:06:47.679Z,12.60
2023-03-29T19:09:14.571Z,12.50
2023-03-29T19:11:41.477Z,12.40
2023-03-29T19:14:09.453Z,12.34
2023-03-29T19:16:36.934Z,12.48
2023-03-29T19:19:05.935Z,12.30
2023-03-29T19:21:33.495Z,12.45
2023-03-29T19:24:01.186Z,12.47
2023-03-29T19:26:29.730Z,12.52
2023-03-29T19:28:56.632Z,12.30
2023-03-29T19:31:23.871Z,12.41
2023-03-29T19:33:50.875Z,12.33
2023-03-29T19:36:17.664Z,12.46
2023-03-29T19:38:45.079Z,12.46
2023-03-29T19:41:12.534Z,12.48
2023-03-29T19:43:39.836Z,12.45
2023-03-29T19:46:09.815Z,12.56
2023-03-29T19:48:37.765Z,12.19
2023-03-29T19:51:05.042Z,12.32
2023-03-29T19:53:33.066Z,12.33
2023-03-29T19:55:59.957Z,12.41
2023-03-29T19:58:26.832Z,12.46
2023-03-29T20:00:58.387Z,12.37
2023-03-29T20:03:28.553Z,12.33
2023-03-29T20:05:56.652Z,12.30
2023-03-29T20:08:25.011Z,12.19
2023-03-29T20:11:04.057Z,12.32
2023-03-29T20:13:38.213Z,12.31
2023-03-29T20:16:11.043Z,12.43
2023-03-29T20:18:45.085Z,12.37
2023-03-29T20:21:14.265Z,12.43
2023-03-29T20:23:42.362Z,12.43
2023-03-29T20:26:09.262Z,12.42
2023-03-29T20:28:39.410Z,12.48
2023-03-29T20:31:07.852Z,12.19
2023-03-29T20:33:34.635Z,12.33
2023-03-29T20:36:01.625Z,12.32
2023-03-29T20:38:28.559Z,12.26
2023-03-29T20:40:55.556Z,12.22
2023-03-29T20:43:22.523Z,12.16
2023-03-29T20:45:53.857Z,12.18
2023-03-29T20:48:23.608Z,12.30
2023-03-29T20:50:51.019Z,12.33
2023-03-29T20:53:18.592Z,12.45
2023-03-29T20:55:45.407Z,12.45
2023-03-29T20:58:12.237Z,12.20
2023-03-29T21:00:40.573Z,12.32
2023-03-29T21:03:08.725Z,12.38
2023-03-29T21:05:36.275Z,12.31
2023-03-29T21:08:04.581Z,12.21
2023-03-29T21:10:31.817Z,12.37
2023-03-29T21:13:00.778Z,12.27
2023-03-29T21:15:28.981Z,12.26
2023-03-29T21:17:56.284Z,12.37
2023-03-29T21:20:24.385Z,12.30
2023-03-29T21:22:51.375Z,12.29
2023-03-29T21:25:18.247Z,12.18
2023-03-29T21:27:45.033Z,12.12
2023-03-29T21:30:12.125Z,12.18
2023-03-29T21:32:38.969Z,12.15
2023-03-29T21:35:06.114Z,12.14
2023-03-29T21:37:33.172Z,12.03
2023-03-29T21:40:00.203Z,12.11
2023-03-29T21:42:27.181Z,12.11
2023-03-29T21:44:54.365Z,12.09
2023-03-29T21:47:21.393Z,12.15
2023-03-29T21:49:48.252Z,12.20
2023-03-29T21:52:15.205Z,12.20
2023-03-29T21:54:42.052Z,12.12
2023-03-29T21:57:08.982Z,12.17
2023-03-29T21:59:35.969Z,12.09
2023-03-29T22:02:02.900Z,12.17
2023-03-29T22:04:37.071Z,11.33
2023-03-29T22:07:05.586Z,11.68
2023-03-29T22:09:33.549Z,11.70
2023-03-29T22:12:01.744Z,11.94
2023-03-29T22:14:31.378Z,11.86
2023-03-29T22:16:58.322Z,11.88
2023-03-29T22:19:25.163Z,11.96
2023-03-29T22:21:51.929Z,12.02
2023-03-29T22:24:19.056Z,12.05
2023-03-29T22:26:46.210Z,11.96
2023-03-29T22:29:13.179Z,11.99
2023-03-29T22:31:40.009Z,12.14
2023-03-29T22:34:06.950Z,12.06
2023-03-29T22:36:34.190Z,11.97
2023-03-29T22:39:05.162Z,11.95
2023-03-29T22:41:31.984Z,11.96
2023-03-29T22:44:01.295Z,11.97
2023-03-29T22:46:28.240Z,11.92
2023-03-29T22:48:55.500Z,11.84
2023-03-29T22:51:22.457Z,12.03
2023-03-29T22:53:49.477Z,12.06
2023-03-29T22:56:16.859Z,11.96
2023-03-29T22:58:44.015Z,11.66
2023-03-29T23:01:11.105Z,11.67
2023-03-29T23:03:37.988Z,11.78
2023-03-29T23:06:05.197Z,11.87
2023-03-29T23:08:33.017Z,11.75
2023-03-29T23:11:00.126Z,11.81
2023-03-29T23:13:29.429Z,11.78
2023-03-29T23:15:59.211Z,11.67
2023-03-29T23:18:27.864Z,11.83
2023-03-29T23:20:56.729Z,11.85
2023-03-29T23:23:25.314Z,11.79
2023-03-29T23:25:52.791Z,11.75
2023-03-29T23:28:22.228Z,11.69
2023-03-29T23:31:00.994Z,11.78
2023-03-29T23:33:30.930Z,11.79
2023-03-29T23:35:57.773Z,11.90
2023-03-29T23:38:24.542Z,11.75
2023-03-29T23:41:00.601Z,11.88
2023-03-29T23:43:31.951Z,11.89
2023-03-29T23:46:04.335Z,11.89
2023-03-29T23:48:32.912Z,11.92
2023-03-29T23:50:59.957Z,11.98
2023-03-29T23:53:29.070Z,11.77
2023-03-29T23:55:58.525Z,11.70
2023-03-29T23:58:25.317Z,11.86
